URMM 200200Z 30002MPS 9999 NSC 19/18 Q1016 R11/090070 NOSIG RMK QFE734/0979
QNH:(hPa/inHg/mmHg)1016 / 30 / 762
QFE:(hPa/inHg/mmHg)977 / 28.86 / 733
Temperature19
Dew Point18
Visibility> 10000
Weather
Cloud Cover
Transition Altitude7000 ft.
Transition LevelFL80
SQUAWK